Time;durP1;ratioP1;P1;durP2;ratioP2;P2;SDS_P1;SDS_P2;PMS_P1;PMS_P2;Temp;Humidity;BMP_temperature;BMP_pressure;BME280_temperature;BME280_humidity;BME280_pressure;Samples;Min_cycle;Max_cycle;Signal;HPM_P1;HPM_P2
2023/03/15 00:02:07;;;;;;;12.85;5.18;;;;;;;;;;5070277;28;20041;-59
2023/03/15 00:04:33;;;;;;;7.05;3.40;;;;;;;;;;5068969;28;20137;-59
2023/03/15 00:07:00;;;;;;;8.05;4.10;;;;;;;;;;5067367;28;20099;-59
2023/03/15 00:09:26;;;;;;;7.28;3.50;;;;;;;;;;5065111;28;20049;-59
2023/03/15 00:11:55;;;;;;;5.95;3.63;;;;;;;;;;5068989;28;20366;-59
2023/03/15 00:14:21;;;;;;;5.80;3.40;;;;;;;;;;5072144;28;20044;-59
2023/03/15 00:16:48;;;;;;;14.30;3.22;;;;;;;;;;5073322;28;20068;-58
2023/03/15 00:19:14;;;;;;;6.65;3.35;;;;;;;;;;5053468;28;20044;-58
2023/03/15 00:21:42;;;;;;;5.15;2.78;;;;;;;;;;5072419;28;20116;-58
2023/03/15 00:24:10;;;;;;;6.20;2.92;;;;;;;;;;5071862;28;20460;-58
2023/03/15 00:26:36;;;;;;;5.95;3.42;;;;;;;;;;5069650;28;20039;-58
2023/03/15 00:29:02;;;;;;;8.68;3.08;;;;;;;;;;5072092;28;20056;-58
2023/03/15 00:31:28;;;;;;;7.78;3.13;;;;;;;;;;5072446;28;20537;-58
2023/03/15 00:33:54;;;;;;;5.07;3.20;;;;;;;;;;5068375;28;20078;-58
2023/03/15 00:36:23;;;;;;;6.40;2.85;;;;;;;;;;5069985;28;20144;-59
2023/03/15 00:38:50;;;;;;;9.18;3.70;;;;;;;;;;5070809;28;20052;-58
2023/03/15 00:41:17;;;;;;;9.35;3.40;;;;;;;;;;5069968;28;20047;-59
2023/03/15 00:43:44;;;;;;;7.38;4.05;;;;;;;;;;5071408;28;20044;-58
2023/03/15 00:46:10;;;;;;;9.43;3.35;;;;;;;;;;5070620;28;20028;-59
2023/03/15 00:48:37;;;;;;;5.65;2.88;;;;;;;;;;5071481;28;20419;-59
2023/03/15 00:51:07;;;;;;;7.25;2.95;;;;;;;;;;5072437;28;20134;-58
2023/03/15 00:53:33;;;;;;;6.82;2.95;;;;;;;;;;5069873;28;20040;-58
2023/03/15 00:56:03;;;;;;;5.55;3.38;;;;;;;;;;5070645;28;20074;-58
2023/03/15 00:58:30;;;;;;;7.78;3.90;;;;;;;;;;5052411;28;20045;-58
2023/03/15 01:00:56;;;;;;;5.72;3.53;;;;;;;;;;5071467;28;20139;-58
2023/03/15 01:03:22;;;;;;;5.90;3.25;;;;;;;;;;5072828;28;20069;-59
2023/03/15 01:05:48;;;;;;;8.93;3.67;;;;;;;;;;5075280;28;20037;-58
2023/03/15 01:08:14;;;;;;;8.02;2.63;;;;;;;;;;5056221;28;20044;-58
2023/03/15 01:10:40;;;;;;;12.52;3.38;;;;;;;;;;5075665;28;20060;-58
2023/03/15 01:13:07;;;;;;;5.03;3.33;;;;;;;;;;5073257;28;20110;-58
2023/03/15 01:15:33;;;;;;;6.35;3.38;;;;;;;;;;5074858;28;20053;-58
2023/03/15 01:17:59;;;;;;;6.63;3.53;;;;;;;;;;5074883;28;20044;-58
2023/03/15 01:20:25;;;;;;;6.10;2.58;;;;;;;;;;5073493;28;20121;-58
2023/03/15 01:22:51;;;;;;;11.35;3.25;;;;;;;;;;5073862;28;20040;-58
2023/03/15 01:25:17;;;;;;;6.00;2.95;;;;;;;;;;5048480;28;20041;-58
2023/03/15 01:27:43;;;;;;;7.20;3.00;;;;;;;;;;5074219;28;20040;-58
2023/03/15 01:30:10;;;;;;;5.65;2.65;;;;;;;;;;5048360;28;20098;-58
2023/03/15 01:32:36;;;;;;;7.13;2.63;;;;;;;;;;5074754;28;20068;-58
2023/03/15 01:35:02;;;;;;;7.30;3.05;;;;;;;;;;5073281;28;20051;-58
2023/03/15 01:37:28;;;;;;;8.00;3.60;;;;;;;;;;5072934;28;22287;-58
2023/03/15 01:39:54;;;;;;;5.28;2.97;;;;;;;;;;5070780;28;20051;-58
2023/03/15 01:42:21;;;;;;;4.85;3.05;;;;;;;;;;5070379;28;20106;-58
2023/03/15 01:45:00;;;;;;;8.75;2.90;;;;;;;;;;5054069;28;20123;-58
2023/03/15 01:47:27;;;;;;;5.03;3.10;;;;;;;;;;5075046;28;20040;-58
2023/03/15 01:49:56;;;;;;;6.13;2.78;;;;;;;;;;5076549;28;20611;-58
2023/03/15 01:52:25;;;;;;;6.40;3.30;;;;;;;;;;5053703;28;20616;-58
2023/03/15 01:54:57;;;;;;;7.22;2.92;;;;;;;;;;5071160;28;20549;-58
2023/03/15 01:57:30;;;;;;;4.65;2.38;;;;;;;;;;5076756;28;20147;-58
2023/03/15 02:00:00;;;;;;;6.57;3.10;;;;;;;;;;5074600;28;20049;-58
2023/03/15 02:02:27;;;;;;;5.03;2.92;;;;;;;;;;5074912;28;20041;-58
2023/03/15 02:04:59;;;;;;;7.05;3.15;;;;;;;;;;5072042;28;20119;-58
2023/03/15 02:07:26;;;;;;;4.85;2.70;;;;;;;;;;5067677;28;20253;-58
2023/03/15 02:10:07;;;;;;;9.52;3.17;;;;;;;;;;5068998;28;20056;-58
2023/03/15 02:12:36;;;;;;;5.50;3.17;;;;;;;;;;5048650;28;20168;-58
2023/03/15 02:15:04;;;;;;;9.55;3.22;;;;;;;;;;5071152;28;20040;-58
2023/03/15 02:17:36;;;;;;;8.63;5.75;;;;;;;;;;5073999;28;20045;-58
2023/03/15 02:20:05;;;;;;;4.40;3.05;;;;;;;;;;5070503;28;20072;-58
2023/03/15 02:22:31;;;;;;;6.07;2.85;;;;;;;;;;5072902;28;20047;-58
2023/03/15 02:25:07;;;;;;;8.07;3.75;;;;;;;;;;5074433;28;20039;-59
2023/03/15 02:27:33;;;;;;;8.55;3.45;;;;;;;;;;5072017;28;20502;-58
2023/03/15 02:30:02;;;;;;;10.55;3.20;;;;;;;;;;5073901;28;20047;-58
2023/03/15 02:32:29;;;;;;;8.75;4.07;;;;;;;;;;5073483;28;20315;-58
2023/03/15 02:34:55;;;;;;;6.10;3.30;;;;;;;;;;5073008;28;20044;-58
2023/03/15 02:37:21;;;;;;;8.60;4.03;;;;;;;;;;5072551;28;20542;-58
2023/03/15 02:39:50;;;;;;;6.00;3.17;;;;;;;;;;5070932;28;20044;-58
2023/03/15 02:42:18;;;;;;;10.85;3.67;;;;;;;;;;5047902;28;20105;-58
2023/03/15 02:44:45;;;;;;;8.98;2.80;;;;;;;;;;5039034;28;20037;-58
2023/03/15 02:47:22;;;;;;;6.05;3.33;;;;;;;;;;5045455;28;20087;-58
2023/03/15 02:49:49;;;;;;;11.43;3.15;;;;;;;;;;5072618;28;21350;-58
2023/03/15 02:52:16;;;;;;;12.18;3.22;;;;;;;;;;5072389;28;20033;-58
2023/03/15 02:54:42;;;;;;;6.00;4.50;;;;;;;;;;5070590;28;20032;-58
2023/03/15 02:57:11;;;;;;;6.70;2.97;;;;;;;;;;5067459;28;20521;-58
2023/03/15 02:59:37;;;;;;;6.30;2.67;;;;;;;;;;5071465;28;20067;-58
2023/03/15 03:02:04;;;;;;;8.07;3.20;;;;;;;;;;5068494;28;20880;-58
2023/03/15 03:04:30;;;;;;;6.63;2.45;;;;;;;;;;5067491;28;20048;-58
2023/03/15 03:06:56;;;;;;;11.43;4.30;;;;;;;;;;5071418;28;20142;-58
2023/03/15 03:09:23;;;;;;;7.20;3.25;;;;;;;;;;5050179;28;20049;-58
2023/03/15 03:11:49;;;;;;;6.40;3.25;;;;;;;;;;5071283;28;20063;-58
2023/03/15 03:14:15;;;;;;;6.13;2.78;;;;;;;;;;5070953;28;20136;-58
2023/03/15 03:16:42;;;;;;;7.72;3.60;;;;;;;;;;5066250;28;20123;-58
2023/03/15 03:19:08;;;;;;;6.20;3.20;;;;;;;;;;5054480;28;20092;-58
2023/03/15 03:21:34;;;;;;;11.70;3.08;;;;;;;;;;5053606;28;20557;-58
2023/03/15 03:24:00;;;;;;;5.22;2.80;;;;;;;;;;5071167;28;20048;-58
2023/03/15 03:26:26;;;;;;;6.65;2.67;;;;;;;;;;5069724;28;20157;-58
2023/03/15 03:28:53;;;;;;;5.97;3.10;;;;;;;;;;5070476;28;20044;-58
2023/03/15 03:31:24;;;;;;;10.77;3.30;;;;;;;;;;5071495;28;20070;-58
2023/03/15 03:33:50;;;;;;;5.50;3.03;;;;;;;;;;5073023;28;20043;-58
2023/03/15 03:36:16;;;;;;;9.65;2.72;;;;;;;;;;5073181;28;20044;-58
2023/03/15 03:38:43;;;;;;;11.23;6.60;;;;;;;;;;5073507;28;20041;-58
2023/03/15 03:41:09;;;;;;;15.20;2.85;;;;;;;;;;5073671;28;20047;-58
2023/03/15 03:43:36;;;;;;;6.88;2.92;;;;;;;;;;5070948;28;20037;-58
2023/03/15 03:46:02;;;;;;;6.65;2.92;;;;;;;;;;5072841;28;20526;-58
2023/03/15 03:48:28;;;;;;;7.20;2.40;;;;;;;;;;5069062;28;20519;-58
2023/03/15 03:50:54;;;;;;;10.88;2.85;;;;;;;;;;5068439;28;20041;-58
2023/03/15 03:53:20;;;;;;;5.82;2.80;;;;;;;;;;5068486;28;20064;-58
2023/03/15 03:55:46;;;;;;;6.60;2.30;;;;;;;;;;5071468;28;20689;-58
2023/03/15 03:58:13;;;;;;;10.02;2.85;;;;;;;;;;5071221;28;20071;-58
2023/03/15 04:00:40;;;;;;;7.15;3.03;;;;;;;;;;5070368;28;20045;-57
2023/03/15 04:03:06;;;;;;;7.68;2.58;;;;;;;;;;5070347;28;20107;-58
2023/03/15 04:05:33;;;;;;;8.07;3.28;;;;;;;;;;5072848;28;20096;-58
2023/03/15 04:07:59;;;;;;;5.65;2.70;;;;;;;;;;5072345;28;20534;-58
2023/03/15 04:10:28;;;;;;;7.95;3.22;;;;;;;;;;5066537;28;20060;-58
2023/03/15 04:12:55;;;;;;;5.28;3.05;;;;;;;;;;5071648;28;20032;-58
2023/03/15 04:15:21;;;;;;;8.25;3.03;;;;;;;;;;5071538;28;20501;-58
2023/03/15 04:17:48;;;;;;;6.85;2.65;;;;;;;;;;5072909;28;20052;-58
2023/03/15 04:20:16;;;;;;;6.40;2.72;;;;;;;;;;5073545;28;20048;-58
2023/03/15 04:22:48;;;;;;;7.70;2.80;;;;;;;;;;5073124;28;20114;-58
2023/03/15 04:25:15;;;;;;;7.68;2.80;;;;;;;;;;5072696;28;20480;-58
2023/03/15 04:27:41;;;;;;;10.45;3.17;;;;;;;;;;5072277;28;20226;-58
2023/03/15 04:30:07;;;;;;;6.50;3.78;;;;;;;;;;5072072;28;20045;-58
2023/03/15 04:32:33;;;;;;;5.78;2.88;;;;;;;;;;5070019;28;20032;-58
2023/03/15 04:35:00;;;;;;;6.15;3.15;;;;;;;;;;5070856;28;20041;-58
2023/03/15 04:37:27;;;;;;;7.60;2.67;;;;;;;;;;5064850;28;20809;-58
2023/03/15 04:39:53;;;;;;;10.13;3.08;;;;;;;;;;5074939;28;20047;-58
2023/03/15 04:42:19;;;;;;;8.23;2.97;;;;;;;;;;5077685;28;20045;-58
2023/03/15 04:44:46;;;;;;;13.98;3.15;;;;;;;;;;5079489;28;20040;-58
2023/03/15 04:47:12;;;;;;;4.90;3.10;;;;;;;;;;5079274;28;20037;-58
2023/03/15 04:49:38;;;;;;;5.25;2.58;;;;;;;;;;5077239;28;20623;-58
2023/03/15 04:52:04;;;;;;;5.60;2.88;;;;;;;;;;5078341;28;20040;-58
2023/03/15 04:54:30;;;;;;;9.40;3.72;;;;;;;;;;5076701;28;20110;-58
2023/03/15 04:56:56;;;;;;;5.70;3.15;;;;;;;;;;5053745;28;20105;-58
2023/03/15 04:59:22;;;;;;;9.82;3.47;;;;;;;;;;5074569;28;20667;-58
2023/03/15 05:01:48;;;;;;;6.78;2.65;;;;;;;;;;5076153;28;20041;-58
2023/03/15 05:04:15;;;;;;;4.25;3.00;;;;;;;;;;5079619;28;20065;-58
2023/03/15 05:06:41;;;;;;;4.85;2.70;;;;;;;;;;5078558;28;20530;-58
2023/03/15 05:09:07;;;;;;;6.72;3.22;;;;;;;;;;5060274;28;20581;-58
2023/03/15 05:11:33;;;;;;;9.15;3.35;;;;;;;;;;5055881;28;20049;-57
2023/03/15 05:13:59;;;;;;;6.07;3.63;;;;;;;;;;5056730;28;20040;-58
2023/03/15 05:16:25;;;;;;;7.75;3.30;;;;;;;;;;5055835;28;20052;-57
2023/03/15 05:18:52;;;;;;;6.10;2.83;;;;;;;;;;5057222;28;20534;-57
2023/03/15 05:21:19;;;;;;;5.13;3.22;;;;;;;;;;5058779;28;20060;-57
2023/03/15 05:23:45;;;;;;;6.03;3.13;;;;;;;;;;5057801;28;20574;-57
2023/03/15 05:26:13;;;;;;;7.05;2.75;;;;;;;;;;5057871;28;20478;-58
2023/03/15 05:28:39;;;;;;;9.20;2.80;;;;;;;;;;5054719;28;20319;-58
2023/03/15 05:31:05;;;;;;;6.15;2.70;;;;;;;;;;5058521;28;20033;-57
2023/03/15 05:33:31;;;;;;;6.45;2.22;;;;;;;;;;5056385;28;20040;-57
2023/03/15 05:35:58;;;;;;;12.43;3.60;;;;;;;;;;5056795;28;20091;-57
2023/03/15 05:38:25;;;;;;;8.65;2.80;;;;;;;;;;5058624;28;20040;-57
2023/03/15 05:40:52;;;;;;;7.40;3.63;;;;;;;;;;5057440;28;20040;-57
2023/03/15 05:43:18;;;;;;;7.22;2.78;;;;;;;;;;5057382;28;20068;-57
2023/03/15 05:45:46;;;;;;;6.53;2.28;;;;;;;;;;5056730;28;20049;-57
2023/03/15 05:48:12;;;;;;;7.70;3.22;;;;;;;;;;5052664;28;20091;-57
2023/03/15 05:50:38;;;;;;;7.60;3.05;;;;;;;;;;5052251;28;20124;-58
2023/03/15 05:53:04;;;;;;;11.45;5.75;;;;;;;;;;5047981;28;20067;-57
2023/03/15 05:55:30;;;;;;;13.77;5.70;;;;;;;;;;5042733;28;20049;-58
2023/03/15 05:57:56;;;;;;;11.32;5.90;;;;;;;;;;5044204;28;20048;-59
2023/03/15 06:00:22;;;;;;;7.07;3.63;;;;;;;;;;5045928;28;20515;-58
2023/03/15 06:02:49;;;;;;;8.25;2.97;;;;;;;;;;5046465;28;20044;-58
2023/03/15 06:05:15;;;;;;;9.07;4.10;;;;;;;;;;5052818;28;20598;-58
2023/03/15 06:07:41;;;;;;;6.43;3.28;;;;;;;;;;5050011;28;20037;-58
2023/03/15 06:10:07;;;;;;;9.68;3.78;;;;;;;;;;5051149;28;20498;-58
2023/03/15 06:12:33;;;;;;;5.57;3.10;;;;;;;;;;5049059;28;20065;-58
2023/03/15 06:14:59;;;;;;;6.68;3.47;;;;;;;;;;5072304;28;20127;-58
2023/03/15 06:17:25;;;;;;;7.60;3.72;;;;;;;;;;5073790;28;20458;-58
2023/03/15 06:19:52;;;;;;;6.90;3.67;;;;;;;;;;5075924;28;20511;-58
2023/03/15 06:22:19;;;;;;;5.10;3.05;;;;;;;;;;5049557;28;20951;-58
2023/03/15 06:24:45;;;;;;;5.30;3.28;;;;;;;;;;5073232;28;20102;-58
2023/03/15 06:27:11;;;;;;;8.10;3.30;;;;;;;;;;5072887;28;20518;-58
2023/03/15 06:29:37;;;;;;;8.52;4.50;;;;;;;;;;5073499;28;20094;-58
2023/03/15 06:32:03;;;;;;;14.70;3.75;;;;;;;;;;5054766;28;20076;-58
2023/03/15 06:34:30;;;;;;;6.90;3.75;;;;;;;;;;5075106;28;20123;-58
2023/03/15 06:36:56;;;;;;;6.63;3.35;;;;;;;;;;5072826;28;20045;-58
2023/03/15 06:39:22;;;;;;;4.78;3.17;;;;;;;;;;5075472;28;20049;-58
2023/03/15 06:41:49;;;;;;;10.70;3.35;;;;;;;;;;5074240;28;20040;-58
2023/03/15 06:44:15;;;;;;;6.22;2.88;;;;;;;;;;5049261;28;20041;-58
2023/03/15 06:46:41;;;;;;;8.13;3.60;;;;;;;;;;5055556;28;20045;-58
2023/03/15 06:49:07;;;;;;;12.10;4.30;;;;;;;;;;5072444;28;20052;-58
2023/03/15 06:51:33;;;;;;;8.20;3.72;;;;;;;;;;5072245;28;20049;-57
2023/03/15 06:53:59;;;;;;;13.02;4.20;;;;;;;;;;5064703;28;20102;-58
2023/03/15 06:56:25;;;;;;;8.10;4.30;;;;;;;;;;5071298;28;20036;-58
2023/03/15 06:58:51;;;;;;;10.48;3.60;;;;;;;;;;5066481;28;20037;-58
2023/03/15 07:01:17;;;;;;;10.23;4.38;;;;;;;;;;5070743;28;20053;-57
2023/03/15 07:03:43;;;;;;;11.80;3.95;;;;;;;;;;5064104;28;20561;-58
2023/03/15 07:06:09;;;;;;;8.85;4.20;;;;;;;;;;5066448;28;20131;-58
2023/03/15 07:08:36;;;;;;;9.25;3.58;;;;;;;;;;5046241;28;20078;-58
2023/03/15 07:11:02;;;;;;;10.18;3.33;;;;;;;;;;5067972;28;20510;-57
2023/03/15 07:13:28;;;;;;;6.72;3.88;;;;;;;;;;5067112;28;20102;-59
2023/03/15 07:15:55;;;;;;;9.38;3.63;;;;;;;;;;5066169;28;20676;-59
2023/03/15 07:18:21;;;;;;;10.82;3.38;;;;;;;;;;5069837;28;20131;-58
2023/03/15 07:20:47;;;;;;;12.23;3.83;;;;;;;;;;5069943;28;20918;-58
2023/03/15 07:23:13;;;;;;;4.22;2.42;;;;;;;;;;5067532;28;20044;-59
2023/03/15 07:25:39;;;;;;;9.32;3.92;;;;;;;;;;5071035;28;20037;-58
2023/03/15 07:28:05;;;;;;;9.48;3.67;;;;;;;;;;5068326;28;20120;-58
2023/03/15 07:30:31;;;;;;;6.38;3.08;;;;;;;;;;5067259;28;20686;-58
2023/03/15 07:32:57;;;;;;;7.32;2.92;;;;;;;;;;5069922;28;20200;-58
2023/03/15 07:35:23;;;;;;;6.75;3.22;;;;;;;;;;5070038;28;20088;-58
2023/03/15 07:37:50;;;;;;;7.03;2.65;;;;;;;;;;5063838;28;20041;-58
2023/03/15 07:40:16;;;;;;;5.60;2.90;;;;;;;;;;5061163;28;20036;-58
2023/03/15 07:42:42;;;;;;;8.75;2.97;;;;;;;;;;5067209;28;20513;-58
2023/03/15 07:45:09;;;;;;;10.45;2.72;;;;;;;;;;5062436;28;20506;-58
2023/03/15 07:47:35;;;;;;;7.80;2.42;;;;;;;;;;5062026;28;20310;-58
2023/03/15 07:50:02;;;;;;;9.18;3.10;;;;;;;;;;5069446;28;20044;-58
2023/03/15 07:52:28;;;;;;;8.93;3.60;;;;;;;;;;5068587;28;20120;-58
2023/03/15 07:54:55;;;;;;;8.73;3.05;;;;;;;;;;5067650;28;20289;-58
2023/03/15 07:57:21;;;;;;;12.68;4.13;;;;;;;;;;5072514;28;20102;-58
2023/03/15 07:59:47;;;;;;;9.93;2.75;;;;;;;;;;5072394;28;20980;-58
2023/03/15 08:02:14;;;;;;;21.13;3.72;;;;;;;;;;5072276;28;20059;-59
2023/03/15 08:04:40;;;;;;;6.38;2.50;;;;;;;;;;5071559;28;20036;-58
2023/03/15 08:07:06;;;;;;;8.10;2.45;;;;;;;;;;5072922;28;20049;-58
2023/03/15 08:09:33;;;;;;;7.57;2.58;;;;;;;;;;5071991;28;20119;-58
2023/03/15 08:11:59;;;;;;;6.53;2.67;;;;;;;;;;5044146;28;20056;-58
2023/03/15 08:14:25;;;;;;;5.05;3.42;;;;;;;;;;5073314;28;20527;-58
2023/03/15 08:16:52;;;;;;;8.20;3.80;;;;;;;;;;5073006;28;20045;-58
2023/03/15 08:19:18;;;;;;;6.70;3.15;;;;;;;;;;5075607;28;20126;-58
2023/03/15 08:21:44;;;;;;;3.70;2.72;;;;;;;;;;5073134;28;20514;-59
2023/03/15 08:24:10;;;;;;;13.57;2.70;;;;;;;;;;5073793;28;20056;-58
2023/03/15 08:26:37;;;;;;;5.03;2.72;;;;;;;;;;5074183;28;20759;-58
2023/03/15 08:29:03;;;;;;;9.45;2.45;;;;;;;;;;5056014;28;20119;-59
2023/03/15 08:31:29;;;;;;;11.20;2.60;;;;;;;;;;5072107;28;20049;-58
2023/03/15 08:33:56;;;;;;;12.43;3.40;;;;;;;;;;5073721;28;20555;-58
2023/03/15 08:36:22;;;;;;;5.00;2.28;;;;;;;;;;5074527;28;20164;-58
2023/03/15 08:38:48;;;;;;;9.32;3.28;;;;;;;;;;5073571;28;20037;-58
2023/03/15 08:41:14;;;;;;;4.93;2.42;;;;;;;;;;5074634;28;20558;-58
2023/03/15 08:43:40;;;;;;;7.45;2.67;;;;;;;;;;5073864;28;20053;-58
2023/03/15 08:46:06;;;;;;;6.63;2.97;;;;;;;;;;5073984;28;20039;-58
2023/03/15 08:48:32;;;;;;;7.22;2.63;;;;;;;;;;5074040;28;20045;-58
2023/03/15 08:51:02;;;;;;;24.05;3.30;;;;;;;;;;5073528;28;20092;-58
2023/03/15 08:53:30;;;;;;;7.93;2.42;;;;;;;;;;5070984;28;20080;-59
2023/03/15 08:55:56;;;;;;;15.20;3.70;;;;;;;;;;5074027;28;20671;-58
2023/03/15 08:58:22;;;;;;;4.40;2.17;;;;;;;;;;5072642;28;20043;-58
2023/03/15 09:00:50;;;;;;;4.03;2.05;;;;;;;;;;5074868;28;20045;-58
2023/03/15 09:03:16;;;;;;;6.30;2.30;;;;;;;;;;5070701;28;20214;-59
2023/03/15 09:05:43;;;;;;;6.90;2.80;;;;;;;;;;5072264;28;20041;-58
2023/03/15 09:08:09;;;;;;;9.40;2.38;;;;;;;;;;5071515;28;20651;-59
2023/03/15 09:10:35;;;;;;;16.23;2.78;;;;;;;;;;5070997;28;20865;-58
2023/03/15 09:13:01;;;;;;;12.23;2.42;;;;;;;;;;5073098;28;20111;-58
2023/03/15 09:15:28;;;;;;;2.05;1.45;;;;;;;;;;5071618;28;20127;-58
2023/03/15 09:17:54;;;;;;;10.02;2.75;;;;;;;;;;5073159;28;20052;-58
2023/03/15 09:20:21;;;;;;;13.57;2.25;;;;;;;;;;5071820;28;20044;-59
2023/03/15 09:22:55;;;;;;;5.90;2.65;;;;;;;;;;5045552;28;20040;-58
2023/03/15 09:25:21;;;;;;;8.20;3.22;;;;;;;;;;5074586;28;20248;-58
2023/03/15 09:27:47;;;;;;;5.85;3.28;;;;;;;;;;5075581;28;20052;-58
2023/03/15 09:30:14;;;;;;;7.88;3.92;;;;;;;;;;5072661;28;20581;-58
2023/03/15 09:32:40;;;;;;;9.38;3.38;;;;;;;;;;5050101;28;20597;-59
2023/03/15 09:35:08;;;;;;;6.30;2.50;;;;;;;;;;5076054;28;20636;-58
2023/03/15 09:37:34;;;;;;;2.72;1.30;;;;;;;;;;5074866;28;20048;-58
2023/03/15 09:40:01;;;;;;;17.65;2.97;;;;;;;;;;5074338;28;20047;-60
2023/03/15 09:42:42;;;;;;;12.88;3.00;;;;;;;;;;5049381;28;20040;-58
2023/03/15 09:45:14;;;;;;;5.60;2.17;;;;;;;;;;5076117;28;20036;-58
2023/03/15 09:47:40;;;;;;;;;;;;;;;;;;5076262;28;20071;-58
2023/03/15 09:50:24;;;;;;;8.32;2.50;;;;;;;;;;5077344;28;19950;-58
2023/03/15 09:52:52;;;;;;;8.40;3.05;;;;;;;;;;5073247;28;20632;-58
2023/03/15 09:55:22;;;;;;;6.88;3.00;;;;;;;;;;5073623;28;20331;-58
2023/03/15 09:57:54;;;;;;;6.45;2.35;;;;;;;;;;5075217;28;20040;-58
2023/03/15 10:00:21;;;;;;;8.30;2.00;;;;;;;;;;5073712;28;20036;-58
2023/03/15 10:02:52;;;;;;;10.68;2.00;;;;;;;;;;5075604;28;20110;-58
2023/03/15 10:05:23;;;;;;;5.13;1.90;;;;;;;;;;5060171;28;20044;-58
2023/03/15 10:07:49;;;;;;;5.68;2.22;;;;;;;;;;5076376;28;20033;-58
2023/03/15 10:10:19;;;;;;;8.15;2.45;;;;;;;;;;5073769;28;20515;-58
2023/03/15 10:12:50;;;;;;;6.30;2.22;;;;;;;;;;5074442;28;20555;-59
2023/03/15 10:15:39;;;;;;;5.00;2.20;;;;;;;;;;5075574;28;20779;-58
2023/03/15 10:18:16;;;;;;;5.75;2.60;;;;;;;;;;5045716;28;20147;-58
2023/03/15 10:20:46;;;;;;;8.10;2.50;;;;;;;;;;5076867;28;20044;-58
2023/03/15 10:23:12;;;;;;;5.80;2.10;;;;;;;;;;5075666;28;20115;-58
2023/03/15 10:25:39;;;;;;;8.00;2.90;;;;;;;;;;5075823;28;20805;-58
2023/03/15 10:28:15;;;;;;;5.10;2.22;;;;;;;;;;5076988;28;20041;-58
2023/03/15 10:30:46;;;;;;;8.98;1.83;;;;;;;;;;5075584;28;20053;-58
2023/03/15 10:33:18;;;;;;;7.07;1.63;;;;;;;;;;5055704;28;20044;-58
2023/03/15 10:35:44;;;;;;;8.55;2.05;;;;;;;;;;5074237;28;20248;-59
2023/03/15 10:38:17;;;;;;;10.55;3.40;;;;;;;;;;5075123;28;20040;-58
2023/03/15 10:40:47;;;;;;;5.70;1.75;;;;;;;;;;5073133;28;20052;-58
2023/03/15 10:43:13;;;;;;;3.03;1.55;;;;;;;;;;5075744;28;20132;-58
2023/03/15 10:45:39;;;;;;;6.32;1.58;;;;;;;;;;5075808;28;20866;-58
2023/03/15 10:48:07;;;;;;;3.25;1.40;;;;;;;;;;5076199;28;20047;-58
2023/03/15 10:50:33;;;;;;;7.07;2.10;;;;;;;;;;5050614;28;20071;-58
2023/03/15 10:53:01;;;;;;;4.15;1.77;;;;;;;;;;5058232;28;20044;-58
2023/03/15 10:55:33;;;;;;;4.80;1.70;;;;;;;;;;5074205;28;20048;-58
2023/03/15 10:58:11;;;;;;;3.03;0.98;;;;;;;;;;5072998;28;20138;-58
2023/03/15 11:00:37;;;;;;;3.38;1.17;;;;;;;;;;5071504;28;20538;-58
2023/03/15 11:03:15;;;;;;;4.90;1.33;;;;;;;;;;5075585;28;20041;-58
2023/03/15 11:05:43;;;;;;;6.35;1.60;;;;;;;;;;5056019;28;20045;-58
2023/03/15 11:08:14;;;;;;;4.15;1.42;;;;;;;;;;5074904;28;20040;-59
2023/03/15 11:10:40;;;;;;;4.55;2.28;;;;;;;;;;5073201;28;20048;-58
2023/03/15 11:13:20;;;;;;;6.03;1.27;;;;;;;;;;5072707;28;20491;-58
2023/03/15 11:15:54;;;;;;;4.30;0.95;;;;;;;;;;5074690;28;20064;-58
2023/03/15 11:18:25;;;;;;;4.18;2.08;;;;;;;;;;5075106;28;20036;-58
2023/03/15 11:20:53;;;;;;;4.95;1.30;;;;;;;;;;5048300;28;21202;-58
2023/03/15 11:23:26;;;;;;;3.78;1.23;;;;;;;;;;5075232;28;20040;-59
2023/03/15 11:25:53;;;;;;;7.38;1.67;;;;;;;;;;5075331;28;20821;-58
2023/03/15 11:28:21;;;;;;;13.15;2.42;;;;;;;;;;5074345;28;20142;-58
2023/03/15 11:30:47;;;;;;;5.07;1.30;;;;;;;;;;5066017;28;20056;-58
2023/03/15 11:33:24;;;;;;;7.80;1.20;;;;;;;;;;5069616;28;20029;-58
2023/03/15 11:35:51;;;;;;;4.80;1.92;;;;;;;;;;5069892;28;20040;-58
2023/03/15 11:38:23;;;;;;;5.68;1.35;;;;;;;;;;5072290;28;20029;-58
2023/03/15 11:40:53;;;;;;;9.25;1.52;;;;;;;;;;5072947;28;20120;-58
2023/03/15 11:43:22;;;;;;;5.15;1.83;;;;;;;;;;5075379;28;20036;-60
2023/03/15 11:45:53;;;;;;;4.63;1.08;;;;;;;;;;5075032;28;20067;-58
2023/03/15 11:48:30;;;;;;;3.08;1.20;;;;;;;;;;5072535;28;20072;-60
2023/03/15 11:50:57;;;;;;;2.35;1.48;;;;;;;;;;5074024;28;20048;-58
2023/03/15 11:53:26;;;;;;;3.28;1.45;;;;;;;;;;5071050;28;20045;-58
2023/03/15 11:55:53;;;;;;;2.70;1.33;;;;;;;;;;5070595;28;20560;-58
2023/03/15 11:58:31;;;;;;;2.05;1.02;;;;;;;;;;5070710;28;20091;-58
2023/03/15 12:01:05;;;;;;;6.20;2.92;;;;;;;;;;5045810;28;20443;-58
2023/03/15 12:03:39;;;;;;;9.95;2.00;;;;;;;;;;5069870;28;20045;-59
2023/03/15 12:06:17;;;;;;;5.47;1.10;;;;;;;;;;5069515;28;20040;-58
2023/03/15 12:08:44;;;;;;;16.95;4.38;;;;;;;;;;5069072;28;21978;-58
2023/03/15 12:11:11;;;;;;;2.92;1.13;;;;;;;;;;5044368;28;20140;-58
2023/03/15 12:13:37;;;;;;;5.90;1.40;;;;;;;;;;5053182;28;20033;-60
2023/03/15 12:16:05;;;;;;;3.08;1.42;;;;;;;;;;5052666;28;20084;-58
2023/03/15 12:18:45;;;;;;;4.55;1.95;;;;;;;;;;5054411;28;20063;-58
2023/03/15 12:21:15;;;;;;;3.85;2.15;;;;;;;;;;5054209;28;20149;-58
2023/03/15 12:23:47;;;;;;;8.85;1.65;;;;;;;;;;5053287;28;20041;-58
2023/03/15 12:26:13;;;;;;;;;;;;;;;;;;5056242;28;20454;-58
2023/03/15 12:28:51;;;;;;;6.80;2.05;;;;;;;;;;5054682;28;20119;-58
2023/03/15 12:31:18;;;;;;;5.30;1.52;;;;;;;;;;5047099;28;20053;-58
2023/03/15 12:33:57;;;;;;;1.88;1.20;;;;;;;;;;5047637;28;20264;-58
2023/03/15 12:36:32;;;;;;;2.70;1.40;;;;;;;;;;5047573;28;20067;-58
2023/03/15 12:39:19;;;;;;;5.40;1.52;;;;;;;;;;5048909;28;20118;-58
2023/03/15 12:41:49;;;;;;;2.90;1.83;;;;;;;;;;5050298;28;20095;-58
2023/03/15 12:44:21;;;;;;;3.28;1.42;;;;;;;;;;5055443;28;20044;-58
2023/03/15 12:46:47;;;;;;;4.80;1.83;;;;;;;;;;5054333;28;20037;-58
2023/03/15 12:49:28;;;;;;;4.22;1.60;;;;;;;;;;5046409;28;21513;-59
2023/03/15 12:52:05;;;;;;;7.53;2.03;;;;;;;;;;5045659;28;20124;-58
2023/03/15 12:54:39;;;;;;;2.60;1.67;;;;;;;;;;5052410;28;20049;-58
2023/03/15 12:57:06;;;;;;;5.38;1.65;;;;;;;;;;5053186;28;20041;-58
2023/03/15 12:59:40;;;;;;;5.32;1.75;;;;;;;;;;5054917;28;20144;-58
2023/03/15 13:02:26;;;;;;;3.90;1.20;;;;;;;;;;5054245;28;20102;-58
2023/03/15 13:05:12;;;;;;;3.00;1.25;;;;;;;;;;5053474;28;20722;-58
2023/03/15 13:07:41;;;;;;;3.83;1.40;;;;;;;;;;5057792;28;20041;-58
2023/03/15 13:10:16;;;;;;;5.35;1.40;;;;;;;;;;5059303;28;20041;-58
2023/03/15 13:12:47;;;;;;;3.20;1.30;;;;;;;;;;5059233;28;20616;-58
2023/03/15 13:15:16;;;;;;;6.78;1.45;;;;;;;;;;5075021;28;20060;-58
2023/03/15 13:17:50;;;;;;;5.68;1.40;;;;;;;;;;5058158;28;20527;-58
2023/03/15 13:20:29;;;;;;;5.63;1.52;;;;;;;;;;5076563;28;20123;-58
2023/03/15 13:22:56;;;;;;;4.72;1.63;;;;;;;;;;5076680;28;20561;-58
2023/03/15 13:25:24;;;;;;;6.15;1.58;;;;;;;;;;5075659;28;20055;-59
2023/03/15 13:27:50;;;;;;;4.72;1.15;;;;;;;;;;5075288;28;20126;-58
2023/03/15 13:30:34;;;;;;;5.13;1.38;;;;;;;;;;5075649;28;20044;-59
2023/03/15 13:33:14;;;;;;;4.15;1.45;;;;;;;;;;5076093;28;20430;-58
2023/03/15 13:35:44;;;;;;;6.22;1.58;;;;;;;;;;5075968;28;20479;-59
2023/03/15 13:38:20;;;;;;;7.00;2.05;;;;;;;;;;5075288;28;20040;-58
2023/03/15 13:40:46;;;;;;;3.80;1.40;;;;;;;;;;5075856;28;20040;-58
2023/03/15 13:43:12;;;;;;;3.05;1.30;;;;;;;;;;5076473;28;20158;-58
2023/03/15 13:45:41;;;;;;;4.07;1.33;;;;;;;;;;5076155;28;20071;-58
2023/03/15 13:48:08;;;;;;;3.15;1.70;;;;;;;;;;5077391;28;20576;-58
2023/03/15 13:50:34;;;;;;;5.60;1.58;;;;;;;;;;5069765;28;20091;-58
2023/03/15 13:53:00;;;;;;;5.05;1.08;;;;;;;;;;5073843;28;20047;-58
2023/03/15 13:55:28;;;;;;;4.07;1.48;;;;;;;;;;5076218;28;20048;-58
2023/03/15 13:57:58;;;;;;;6.28;1.63;;;;;;;;;;5076427;28;20043;-58
2023/03/15 14:00:25;;;;;;;3.42;1.80;;;;;;;;;;5074617;28;20044;-59
2023/03/15 14:03:01;;;;;;;2.90;1.70;;;;;;;;;;5055512;28;20134;-58
2023/03/15 14:05:29;;;;;;;7.13;1.50;;;;;;;;;;5074112;28;20095;-58
2023/03/15 14:07:55;;;;;;;3.70;1.50;;;;;;;;;;5075794;28;20044;-58
2023/03/15 14:10:31;;;;;;;3.90;1.30;;;;;;;;;;5075044;28;20056;-58
2023/03/15 14:12:59;;;;;;;6.43;1.58;;;;;;;;;;5075278;28;20435;-58
2023/03/15 14:15:35;;;;;;;5.65;2.25;;;;;;;;;;5075227;28;20072;-58
2023/03/15 14:18:07;;;;;;;5.85;1.75;;;;;;;;;;5075636;28;20118;-58
2023/03/15 14:20:40;;;;;;;2.88;1.15;;;;;;;;;;5074608;28;20041;-58
2023/03/15 14:23:09;;;;;;;3.05;1.48;;;;;;;;;;5074605;28;20041;-58
2023/03/15 14:25:35;;;;;;;1.85;1.33;;;;;;;;;;5075756;28;20070;-58
2023/03/15 14:28:02;;;;;;;3.63;1.45;;;;;;;;;;5077168;28;20537;-58
2023/03/15 14:30:29;;;;;;;4.10;1.20;;;;;;;;;;5074808;28;20085;-58
2023/03/15 14:32:57;;;;;;;6.15;2.03;;;;;;;;;;5069242;28;20187;-58
2023/03/15 14:35:31;;;;;;;7.40;1.45;;;;;;;;;;5070169;28;20048;-58
2023/03/15 14:38:08;;;;;;;3.65;0.98;;;;;;;;;;5054311;28;20124;-58
2023/03/15 14:40:36;;;;;;;7.75;1.52;;;;;;;;;;5071242;28;20043;-58
2023/03/15 14:43:03;;;;;;;4.20;1.30;;;;;;;;;;5072770;28;20047;-58
2023/03/15 14:45:32;;;;;;;1.67;1.00;;;;;;;;;;5074987;28;20049;-58
2023/03/15 14:48:03;;;;;;;5.13;1.88;;;;;;;;;;5076083;28;20029;-58